createdAt,value
2023-05-09T00:00:42.862Z,102730.88
2023-05-09T00:03:47.944Z,102724.84
2023-05-09T00:06:53.219Z,102733.31
2023-05-09T00:09:59.906Z,102723.75
2023-05-09T00:13:05.250Z,102728.09
2023-05-09T00:16:13.920Z,102731.47
2023-05-09T00:19:19.123Z,102721.22
2023-05-09T00:22:24.152Z,102727.94
2023-05-09T00:25:30.617Z,102719.41
2023-05-09T00:28:35.693Z,102712.63
2023-05-09T00:31:40.918Z,102717.56
2023-05-09T00:34:46.052Z,102720.94
2023-05-09T00:37:51.104Z,102711.59
2023-05-09T00:40:57.620Z,102717.44
2023-05-09T00:44:02.770Z,102713.13
2023-05-09T00:47:08.184Z,102711.28
2023-05-09T00:50:16.236Z,102706.31
2023-05-09T00:53:21.382Z,102707.25
2023-05-09T00:56:28.086Z,102703.84
2023-05-09T00:59:33.134Z,102691.25
2023-05-09T01:02:49.801Z,102703.09
2023-05-09T01:05:59.966Z,102691.97
2023-05-09T01:09:07.648Z,102700.56
2023-05-09T01:12:18.173Z,102692.81
2023-05-09T01:15:29.798Z,102701.25
2023-05-09T01:18:41.857Z,102690.34
2023-05-09T01:21:50.036Z,102697.97
2023-05-09T01:25:29.704Z,102696.16
2023-05-09T01:28:51.878Z,102688.34
2023-05-09T01:31:59.295Z,102688.34
2023-05-09T01:35:06.079Z,102682.44
2023-05-09T01:38:15.808Z,102687.34
2023-05-09T01:41:24.521Z,102673.03
2023-05-09T01:44:32.573Z,102669.44
2023-05-09T01:47:39.716Z,102663.56
2023-05-09T01:50:46.238Z,102669.56
2023-05-09T01:53:52.764Z,102674.47
2023-05-09T01:56:57.930Z,102663.44
2023-05-09T02:00:04.034Z,102670.03
2023-05-09T02:03:19.371Z,102675.28
2023-05-09T02:06:25.495Z,102670.16
2023-05-09T02:09:30.689Z,102675.28
2023-05-09T02:12:36.476Z,102666.69
2023-05-09T02:15:42.076Z,102658.13
2023-05-09T02:18:48.710Z,102656.56
2023-05-09T02:21:53.759Z,102659.78
2023-05-09T02:25:00.583Z,102661.53
2023-05-09T02:28:05.724Z,102653.00
2023-05-09T02:31:12.491Z,102657.13
2023-05-09T02:34:19.093Z,102651.25
2023-05-09T02:37:24.469Z,102649.63
2023-05-09T02:40:30.867Z,102650.44
2023-05-09T02:43:36.158Z,102647.09
2023-05-09T02:46:41.150Z,102657.19
2023-05-09T02:49:47.969Z,102653.88
2023-05-09T02:52:54.175Z,102649.47
2023-05-09T02:55:59.481Z,102643.69
2023-05-09T02:59:04.536Z,102647.19
2023-05-09T03:02:11.770Z,102650.50
2023-05-09T03:05:18.974Z,102648.81
2023-05-09T03:08:24.214Z,102645.47
2023-05-09T03:11:29.656Z,102647.09
2023-05-09T03:14:35.135Z,102647.19
2023-05-09T03:17:41.248Z,102642.81
2023-05-09T03:20:47.960Z,102633.47
2023-05-09T03:23:53.256Z,102637.78
2023-05-09T03:26:58.575Z,102634.47
2023-05-09T03:30:04.010Z,102635.34
2023-05-09T03:33:09.963Z,102632.84
2023-05-09T03:36:17.458Z,102637.91
2023-05-09T03:39:22.720Z,102631.22
2023-05-09T03:42:32.648Z,102636.31
2023-05-09T03:45:40.576Z,102619.47
2023-05-09T03:48:47.880Z,102618.69
2023-05-09T03:51:54.584Z,102619.56
2023-05-09T03:54:59.967Z,102620.56
2023-05-09T03:58:08.494Z,102620.56
2023-05-09T04:01:17.946Z,102624.09
2023-05-09T04:04:23.847Z,102622.47
2023-05-09T04:07:30.971Z,102619.13
2023-05-09T04:10:36.901Z,102620.84
2023-05-09T04:13:42.967Z,102615.91
2023-05-09T04:17:04.274Z,102612.59
2023-05-09T04:20:11.557Z,102616.13
2023-05-09T04:23:18.608Z,102614.44
2023-05-09T04:26:24.785Z,102610.34
2023-05-09T04:29:32.970Z,102608.72
2023-05-09T04:32:39.000Z,102619.00
2023-05-09T04:35:44.554Z,102615.66
2023-05-09T04:38:51.200Z,102613.25
2023-05-09T04:42:01.233Z,102614.25
2023-05-09T04:45:07.392Z,102615.03
2023-05-09T04:48:14.456Z,102617.66
2023-05-09T04:51:19.815Z,102619.47
2023-05-09T04:54:26.941Z,102609.31
2023-05-09T04:57:32.784Z,102617.06
2023-05-09T05:00:38.145Z,102608.56
2023-05-09T05:03:45.422Z,102619.66
2023-05-09T05:06:50.537Z,102622.22
2023-05-09T05:09:57.153Z,102622.31
2023-05-09T05:13:03.170Z,102618.16
2023-05-09T05:16:08.571Z,102623.28
2023-05-09T05:19:14.319Z,102611.38
2023-05-09T05:22:20.966Z,102610.59
2023-05-09T05:25:27.724Z,102613.13
2023-05-09T05:28:34.012Z,102618.25
2023-05-09T05:31:39.288Z,102614.88
2023-05-09T05:34:44.430Z,102614.03
2023-05-09T05:37:49.779Z,102608.06
2023-05-09T05:40:57.114Z,102605.50
2023-05-09T05:44:03.707Z,102600.41
2023-05-09T05:47:09.148Z,102608.91
2023-05-09T05:50:15.657Z,102596.97
2023-05-09T05:53:21.354Z,102588.41
2023-05-09T05:56:30.666Z,102587.50
2023-05-09T05:59:36.815Z,102589.19
2023-05-09T06:02:45.366Z,102589.97
2023-05-09T06:05:58.008Z,102574.50
2023-05-09T06:09:04.478Z,102572.75
2023-05-09T06:12:11.965Z,102574.28
2023-05-09T06:15:17.836Z,102573.25
2023-05-09T06:18:25.645Z,102574.81
2023-05-09T06:21:30.766Z,102573.84
2023-05-09T06:24:36.583Z,102572.94
2023-05-09T06:27:44.780Z,102571.00
2023-05-09T06:30:49.909Z,102575.22
2023-05-09T06:33:55.221Z,102561.34
2023-05-09T06:37:00.407Z,102566.34
2023-05-09T06:40:06.580Z,102566.16
2023-05-09T06:43:14.181Z,102562.63
2023-05-09T06:46:19.401Z,102558.91
2023-05-09T06:49:24.627Z,102557.16
2023-05-09T06:52:29.841Z,102560.59
2023-05-09T06:55:34.988Z,102561.38
2023-05-09T06:58:41.708Z,102556.97
2023-05-09T07:01:47.374Z,102564.53
2023-05-09T07:04:52.754Z,102554.97
2023-05-09T07:07:57.880Z,102555.56
2023-05-09T07:11:02.965Z,102553.69
2023-05-09T07:14:09.476Z,102548.53
2023-05-09T07:17:22.904Z,102544.84
2023-05-09T07:20:28.911Z,102544.63
2023-05-09T07:23:34.094Z,102541.00
2023-05-09T07:26:39.397Z,102531.38
2023-05-09T07:29:46.168Z,102526.28
2023-05-09T07:32:51.946Z,102529.41
2023-05-09T07:35:57.197Z,102516.66
2023-05-09T07:39:02.297Z,102531.28
2023-05-09T07:42:08.427Z,102523.53
2023-05-09T07:45:15.559Z,102519.00
2023-05-09T07:48:20.992Z,102530.75
2023-05-09T07:51:26.579Z,102515.22
2023-05-09T07:54:31.815Z,102510.91
2023-05-09T07:57:36.864Z,102509.13
2023-05-09T08:00:43.567Z,102506.56
2023-05-09T08:03:48.870Z,102505.72
2023-05-09T08:06:54.216Z,102499.59
2023-05-09T08:09:59.413Z,102506.47
2023-05-09T08:13:04.554Z,102499.66
2023-05-09T08:16:13.766Z,102495.09
2023-05-09T08:19:21.135Z,102495.25
2023-05-09T08:22:26.318Z,102497.66
2023-05-09T08:25:34.009Z,102491.00
2023-05-09T08:28:39.392Z,102483.81
2023-05-09T08:31:46.303Z,102479.44
2023-05-09T08:34:51.596Z,102472.38
2023-05-09T08:37:56.959Z,102478.25
2023-05-09T08:41:03.109Z,102467.97
2023-05-09T08:44:08.630Z,102467.09
2023-05-09T08:47:15.564Z,102471.13
2023-05-09T08:50:20.806Z,102450.31
2023-05-09T08:53:26.838Z,102458.06
2023-05-09T08:56:32.661Z,102459.63
2023-05-09T08:59:38.324Z,102456.28
2023-05-09T09:02:45.054Z,102452.69
2023-05-09T09:05:50.610Z,102445.66
2023-05-09T09:08:57.297Z,102453.13
2023-05-09T09:12:03.534Z,102445.34
2023-05-09T09:15:12.316Z,102447.19
2023-05-09T09:18:24.180Z,102445.97
2023-05-09T09:21:29.316Z,102434.69
2023-05-09T09:24:34.380Z,102437.22
2023-05-09T09:27:39.421Z,102435.56
2023-05-09T09:30:49.131Z,102431.50
2023-05-09T09:34:01.447Z,102437.28
2023-05-09T09:37:09.255Z,102430.19
2023-05-09T09:40:17.057Z,102430.41
2023-05-09T09:43:27.920Z,102429.03
2023-05-09T09:46:43.904Z,102420.28
2023-05-09T09:49:54.251Z,102419.91
2023-05-09T09:53:00.563Z,102416.53
2023-05-09T09:56:05.660Z,102413.50
2023-05-09T09:59:14.111Z,102411.94
2023-05-09T10:02:25.944Z,102406.56
2023-05-09T10:05:34.544Z,102416.03
2023-05-09T10:08:39.744Z,102418.38
2023-05-09T10:11:45.019Z,102401.13
2023-05-09T10:14:50.938Z,102393.50
2023-05-09T10:17:58.314Z,102405.16
2023-05-09T10:21:05.440Z,102397.09
2023-05-09T10:24:12.054Z,102394.25
2023-05-09T10:27:19.819Z,102398.28
2023-05-09T10:30:30.293Z,102397.09
2023-05-09T10:33:44.060Z,102387.31
2023-05-09T10:36:50.963Z,102387.94
2023-05-09T10:39:56.611Z,102387.47
2023-05-09T10:43:01.644Z,102383.72
2023-05-09T10:46:07.280Z,102385.53
2023-05-09T10:49:12.766Z,102381.94
2023-05-09T10:52:19.446Z,102374.00
2023-05-09T10:55:24.552Z,102378.31
2023-05-09T10:58:30.576Z,102386.25
2023-05-09T11:01:38.015Z,102372.66
2023-05-09T11:04:44.318Z,102378.94
2023-05-09T11:08:20.763Z,102379.66
2023-05-09T11:11:26.974Z,102382.28
2023-05-09T11:14:39.967Z,102375.88
2023-05-09T11:17:45.128Z,102379.69
2023-05-09T11:20:51.479Z,102360.19
2023-05-09T11:23:57.996Z,102368.00
2023-05-09T11:27:04.897Z,102369.31
2023-05-09T11:30:11.371Z,102363.91
2023-05-09T11:33:30.300Z,102355.31
2023-05-09T11:36:37.255Z,102356.44
2023-05-09T11:40:00.245Z,102359.97
2023-05-09T11:43:05.276Z,102364.97
2023-05-09T11:46:10.571Z,102356.44
2023-05-09T11:49:16.007Z,102358.63
2023-05-09T11:52:22.070Z,102360.66
2023-05-09T11:55:30.327Z,102355.63
2023-05-09T11:58:35.733Z,102360.59
2023-05-09T12:01:40.926Z,102352.09
2023-05-09T12:04:46.269Z,102354.88
2023-05-09T12:07:52.787Z,102353.22
2023-05-09T12:11:09.955Z,102342.94
2023-05-09T12:14:29.329Z,102344.97
2023-05-09T12:17:34.807Z,102341.28
2023-05-09T12:20:44.179Z,102333.16
2023-05-09T12:23:53.399Z,102330.25
2023-05-09T12:27:00.867Z,102320.31
2023-05-09T12:30:08.678Z,102315.63
2023-05-09T12:33:13.882Z,102319.06
2023-05-09T12:36:19.115Z,102318.44
2023-05-09T12:39:24.832Z,102316.22
2023-05-09T12:42:31.770Z,102312.28
2023-05-09T12:45:37.722Z,102310.53
2023-05-09T12:48:44.020Z,102306.47
2023-05-09T12:51:51.256Z,102306.22
2023-05-09T12:54:56.669Z,102302.28
2023-05-09T12:58:04.461Z,102304.53
2023-05-09T13:01:11.612Z,102301.22
2023-05-09T13:04:17.373Z,102303.44
2023-05-09T13:07:22.863Z,102296.22
2023-05-09T13:10:29.012Z,102292.22
2023-05-09T13:13:35.435Z,102286.91
2023-05-09T13:16:41.269Z,102280.38
2023-05-09T13:19:46.591Z,102274.47
2023-05-09T13:22:51.690Z,102277.44
2023-05-09T13:25:56.878Z,102270.09
2023-05-09T13:29:03.406Z,102259.69
2023-05-09T13:32:08.874Z,102265.13
2023-05-09T13:35:14.222Z,102262.63
2023-05-09T13:38:19.425Z,102251.63
2023-05-09T13:41:24.714Z,102251.31
2023-05-09T13:44:32.173Z,102255.47
2023-05-09T13:47:38.730Z,102246.22
2023-05-09T13:50:43.818Z,102240.84
2023-05-09T13:53:49.217Z,102245.19
2023-05-09T13:56:54.538Z,102244.50
2023-05-09T14:00:01.276Z,102240.28
2023-05-09T14:03:06.740Z,102244.25
2023-05-09T14:06:14.780Z,102237.31
2023-05-09T14:09:22.270Z,102219.25
2023-05-09T14:12:27.378Z,102221.94
2023-05-09T14:15:35.847Z,102222.38
2023-05-09T14:18:41.281Z,102220.88
2023-05-09T14:21:48.124Z,102220.25
2023-05-09T14:24:54.191Z,102214.38
2023-05-09T14:28:00.297Z,102217.25
2023-05-09T14:31:07.023Z,102210.31
2023-05-09T14:34:14.166Z,102214.81
2023-05-09T14:37:18.957Z,102212.97
2023-05-09T14:40:24.208Z,102214.03
2023-05-09T14:43:29.143Z,102211.81
2023-05-09T14:46:37.084Z,102223.78
2023-05-09T14:49:42.332Z,102217.53
2023-05-09T14:52:47.796Z,102220.50
2023-05-09T14:55:53.108Z,102224.59
2023-05-09T14:58:59.121Z,102215.38
2023-05-09T15:02:05.628Z,102233.28
2023-05-09T15:05:13.971Z,102223.34
2023-05-09T15:08:19.049Z,102238.97
2023-05-09T15:11:25.244Z,102230.66
2023-05-09T15:14:33.553Z,102218.91
2023-05-09T15:17:40.093Z,102214.84
2023-05-09T15:20:45.448Z,102225.81
2023-05-09T15:23:50.765Z,102219.28
2023-05-09T15:26:56.134Z,102214.56
2023-05-09T15:30:01.627Z,102209.41
2023-05-09T15:33:08.511Z,102204.06
2023-05-09T15:36:13.904Z,102203.94
2023-05-09T15:39:19.068Z,102193.09
2023-05-09T15:42:25.371Z,102200.88
2023-05-09T15:45:30.659Z,102194.47
2023-05-09T15:48:38.483Z,102185.16
2023-05-09T15:51:43.549Z,102185.03
2023-05-09T15:54:48.757Z,102180.50
2023-05-09T15:57:53.848Z,102179.00
2023-05-09T16:00:59.105Z,102176.19
2023-05-09T16:04:06.131Z,102164.06
2023-05-09T16:07:12.327Z,102161.84
2023-05-09T16:10:17.791Z,102153.25
2023-05-09T16:13:23.934Z,102164.09
2023-05-09T16:16:29.254Z,102158.00
2023-05-09T16:19:36.549Z,102144.88
2023-05-09T16:22:41.795Z,102149.38
2023-05-09T16:25:49.810Z,102149.47
2023-05-09T16:28:54.976Z,102141.72
2023-05-09T16:32:00.141Z,102142.28
2023-05-09T16:35:07.833Z,102143.53
2023-05-09T16:38:14.279Z,102143.91
2023-05-09T16:41:19.235Z,102146.75
2023-05-09T16:44:25.223Z,102137.53
2023-05-09T16:47:30.314Z,102135.13
2023-05-09T16:50:38.153Z,102127.63
2023-05-09T16:53:43.517Z,102144.47
2023-05-09T16:56:48.575Z,102120.38
2023-05-09T16:59:54.412Z,102129.53
2023-05-09T17:02:59.655Z,102128.59
2023-05-09T17:06:06.368Z,102119.97
2023-05-09T17:09:11.430Z,102121.06
2023-05-09T17:12:18.353Z,102122.47
2023-05-09T17:15:24.001Z,102110.19
2023-05-09T17:18:36.494Z,102113.06
2023-05-09T17:21:44.689Z,102116.09
2023-05-09T17:24:50.045Z,102114.31
2023-05-09T17:27:55.385Z,102111.88
2023-05-09T17:31:00.685Z,102106.28
2023-05-09T17:34:05.914Z,102110.22
2023-05-09T17:37:13.828Z,102110.78
2023-05-09T17:40:19.040Z,102104.03
2023-05-09T17:43:24.275Z,102111.03
2023-05-09T17:46:29.471Z,102108.44
2023-05-09T17:49:34.700Z,102114.31
2023-05-09T17:52:41.398Z,102112.03
2023-05-09T17:55:46.479Z,102103.75
2023-05-09T17:58:55.150Z,102102.09
2023-05-09T18:02:00.879Z,102097.09
2023-05-09T18:05:06.864Z,102113.25
2023-05-09T18:08:16.130Z,102097.59
2023-05-09T18:11:22.630Z,102125.34
2023-05-09T18:14:28.554Z,102102.50
2023-05-09T18:17:33.993Z,102111.31
2023-05-09T18:20:39.134Z,102128.41
2023-05-09T18:23:45.739Z,102111.34
2023-05-09T18:26:51.578Z,102115.88
2023-05-09T18:29:56.754Z,102128.94
2023-05-09T18:33:02.598Z,102129.28
2023-05-09T18:36:08.978Z,102129.25
2023-05-09T18:39:15.969Z,102127.50
2023-05-09T18:42:21.231Z,102131.97
2023-05-09T18:45:26.400Z,102122.75
2023-05-09T18:48:31.637Z,102127.16
2023-05-09T18:51:37.233Z,102130.66
2023-05-09T18:54:43.918Z,102119.72
2023-05-09T18:57:49.389Z,102129.16
2023-05-09T19:00:54.946Z,102124.09
2023-05-09T19:04:01.861Z,102124.13
2023-05-09T19:07:07.889Z,102131.13
2023-05-09T19:10:17.994Z,102120.97
2023-05-09T19:13:23.345Z,102137.22
2023-05-09T19:16:28.462Z,102128.81
2023-05-09T19:19:34.498Z,102139.81
2023-05-09T19:22:41.424Z,102143.47
2023-05-09T19:25:49.950Z,102124.78
2023-05-09T19:28:55.552Z,102133.53
2023-05-09T19:32:01.573Z,102138.72
2023-05-09T19:35:07.218Z,102139.56
2023-05-09T19:38:13.155Z,102138.69
2023-05-09T19:41:19.660Z,102126.75
2023-05-09T19:44:25.315Z,102129.47
2023-05-09T19:47:30.545Z,102137.28
2023-05-09T19:50:36.073Z,102144.13
2023-05-09T19:53:41.762Z,102128.88
2023-05-09T19:56:48.474Z,102138.28
2023-05-09T19:59:55.697Z,102140.88
2023-05-09T20:03:04.067Z,102138.38
2023-05-09T20:06:11.230Z,102133.31
2023-05-09T20:09:20.885Z,102126.44
2023-05-09T20:12:29.896Z,102133.38
2023-05-09T20:15:35.819Z,102135.09
2023-05-09T20:18:41.156Z,102134.41
2023-05-09T20:21:46.477Z,102134.50
2023-05-09T20:24:51.819Z,102124.28
2023-05-09T20:27:58.861Z,102131.88
2023-05-09T20:31:04.722Z,102124.22
2023-05-09T20:34:16.035Z,102124.25
2023-05-09T20:37:21.386Z,102132.09
2023-05-09T20:40:26.735Z,102138.16
2023-05-09T20:43:33.685Z,102136.59
2023-05-09T20:46:40.696Z,102135.75
2023-05-09T20:49:46.167Z,102139.97
2023-05-09T20:52:51.200Z,102139.81
2023-05-09T20:55:56.700Z,102139.16
2023-05-09T20:59:04.203Z,102134.91
2023-05-09T21:02:12.175Z,102135.03
2023-05-09T21:05:17.706Z,102128.94
2023-05-09T21:08:24.262Z,102131.66
2023-05-09T21:11:29.664Z,102133.28
2023-05-09T21:14:37.310Z,102134.19
2023-05-09T21:17:43.050Z,102129.13
2023-05-09T21:20:48.306Z,102131.56
2023-05-09T21:23:53.647Z,102135.19
2023-05-09T21:26:58.920Z,102132.56
2023-05-09T21:30:06.267Z,102127.44
2023-05-09T21:33:13.582Z,102135.25
2023-05-09T21:36:19.850Z,102129.13
2023-05-09T21:39:25.513Z,102130.97
2023-05-09T21:42:30.830Z,102139.56
2023-05-09T21:45:37.380Z,102135.31
2023-05-09T21:48:45.696Z,102145.69
2023-05-09T21:51:50.898Z,102138.88
2023-05-09T21:54:56.201Z,102132.72
2023-05-09T21:58:01.308Z,102134.50
2023-05-09T22:01:08.024Z,102123.44
2023-05-09T22:04:16.179Z,102131.22
2023-05-09T22:07:21.465Z,102117.59
2023-05-09T22:10:27.452Z,102124.47
2023-05-09T22:13:32.629Z,102126.97
2023-05-09T22:16:39.638Z,102125.47
2023-05-09T22:19:45.757Z,102126.19
2023-05-09T22:22:50.895Z,102123.78
2023-05-09T22:25:56.256Z,102125.53
2023-05-09T22:29:01.545Z,102126.41
2023-05-09T22:32:08.797Z,102129.78
2023-05-09T22:35:14.526Z,102118.72
2023-05-09T22:38:20.829Z,102129.91
2023-05-09T22:41:25.585Z,102129.88
2023-05-09T22:44:30.698Z,102141.00
2023-05-09T22:47:39.545Z,102134.16
2023-05-09T22:50:46.861Z,102140.13
2023-05-09T22:53:53.284Z,102138.34
2023-05-09T22:56:58.501Z,102134.19
2023-05-09T23:00:04.330Z,102141.88
2023-05-09T23:03:13.229Z,102141.00
2023-05-09T23:06:18.434Z,102150.44
2023-05-09T23:09:23.691Z,102152.97
2023-05-09T23:12:29.017Z,102158.09
2023-05-09T23:15:34.568Z,102153.91
2023-05-09T23:18:41.005Z,102161.63
2023-05-09T23:21:46.498Z,102151.38
2023-05-09T23:24:51.251Z,102159.16
2023-05-09T23:27:56.420Z,102162.47
2023-05-09T23:31:01.564Z,102164.25
2023-05-09T23:34:08.227Z,102166.78
2023-05-09T23:37:13.881Z,102171.09
2023-05-09T23:40:19.214Z,102174.41
2023-05-09T23:43:24.065Z,102168.53
2023-05-09T23:46:29.383Z,102166.84
2023-05-09T23:49:36.005Z,102169.38
2023-05-09T23:52:41.507Z,102161.78
2023-05-09T23:55:46.562Z,102171.19
2023-05-09T23:58:51.622Z,102178.00
